sensor_id;sensor_type;location;lat;lon;timestamp;temperature;humidity
51982;DHT22;37998;53.416;6.730;2023-04-16T00:01:33;8.00;99.90
51982;DHT22;37998;53.416;6.730;2023-04-16T00:03:58;8.10;99.90
51982;DHT22;37998;53.416;6.730;2023-04-16T00:06:24;8.10;99.90
51982;DHT22;37998;53.416;6.730;2023-04-16T00:08:49;8.00;99.90
51982;DHT22;37998;53.416;6.730;2023-04-16T00:11:16;8.00;99.90
51982;DHT22;37998;53.416;6.730;2023-04-16T00:13:42;7.90;99.90
51982;DHT22;37998;53.416;6.730;2023-04-16T00:16:08;8.00;99.90
51982;DHT22;37998;53.416;6.730;2023-04-16T00:18:33;7.90;99.90
51982;DHT22;37998;53.416;6.730;2023-04-16T00:20:59;7.90;99.90
51982;DHT22;37998;53.416;6.730;2023-04-16T00:23:25;7.90;99.90
51982;DHT22;37998;53.416;6.730;2023-04-16T00:25:50;7.90;99.90
51982;DHT22;37998;53.416;6.730;2023-04-16T00:28:18;7.90;99.90
51982;DHT22;37998;53.416;6.730;2023-04-16T00:30:43;7.90;99.90
51982;DHT22;37998;53.416;6.730;2023-04-16T00:33:09;7.80;99.90
51982;DHT22;37998;53.416;6.730;2023-04-16T00:35:35;7.90;99.90
51982;DHT22;37998;53.416;6.730;2023-04-16T00:38:00;7.80;99.90
51982;DHT22;37998;53.416;6.730;2023-04-16T00:40:27;7.90;99.90
51982;DHT22;37998;53.416;6.730;2023-04-16T00:42:55;7.80;99.90
51982;DHT22;37998;53.416;6.730;2023-04-16T00:45:21;7.80;99.90
51982;DHT22;37998;53.416;6.730;2023-04-16T00:47:47;7.70;99.90
51982;DHT22;37998;53.416;6.730;2023-04-16T00:50:13;7.70;99.90
51982;DHT22;37998;53.416;6.730;2023-04-16T00:52:39;7.70;99.90
51982;DHT22;37998;53.416;6.730;2023-04-16T00:55:06;7.70;99.90
51982;DHT22;37998;53.416;6.730;2023-04-16T00:57:32;7.70;99.90
51982;DHT22;37998;53.416;6.730;2023-04-16T00:59:58;7.70;99.90
51982;DHT22;37998;53.416;6.730;2023-04-16T01:02:24;7.70;99.90
51982;DHT22;37998;53.416;6.730;2023-04-16T01:04:50;7.70;99.90
51982;DHT22;37998;53.416;6.730;2023-04-16T01:07:16;7.70;99.90
51982;DHT22;37998;53.416;6.730;2023-04-16T01:09:41;7.80;99.90
51982;DHT22;37998;53.416;6.730;2023-04-16T01:12:07;7.70;99.90
51982;DHT22;37998;53.416;6.730;2023-04-16T01:14:33;7.80;99.90
51982;DHT22;37998;53.416;6.730;2023-04-16T01:17:01;7.80;99.90
51982;DHT22;37998;53.416;6.730;2023-04-16T01:19:28;7.80;99.90
51982;DHT22;37998;53.416;6.730;2023-04-16T01:21:56;7.90;99.90
51982;DHT22;37998;53.416;6.730;2023-04-16T01:24:22;7.90;99.90
51982;DHT22;37998;53.416;6.730;2023-04-16T01:26:48;7.80;99.90
51982;DHT22;37998;53.416;6.730;2023-04-16T01:29:13;7.80;99.90
51982;DHT22;37998;53.416;6.730;2023-04-16T01:31:39;7.90;99.90
51982;DHT22;37998;53.416;6.730;2023-04-16T01:34:05;7.80;99.90
51982;DHT22;37998;53.416;6.730;2023-04-16T01:36:30;7.80;99.90
51982;DHT22;37998;53.416;6.730;2023-04-16T01:38:56;7.80;99.90
51982;DHT22;37998;53.416;6.730;2023-04-16T01:41:22;7.90;99.90
51982;DHT22;37998;53.416;6.730;2023-04-16T01:43:47;7.80;99.90
51982;DHT22;37998;53.416;6.730;2023-04-16T01:46:17;7.80;99.90
51982;DHT22;37998;53.416;6.730;2023-04-16T01:48:42;7.80;99.90
51982;DHT22;37998;53.416;6.730;2023-04-16T01:51:08;7.80;99.90
51982;DHT22;37998;53.416;6.730;2023-04-16T01:53:35;7.80;99.90
51982;DHT22;37998;53.416;6.730;2023-04-16T01:56:00;7.80;99.90
51982;DHT22;37998;53.416;6.730;2023-04-16T01:58:31;7.70;99.90
51982;DHT22;37998;53.416;6.730;2023-04-16T02:00:57;7.70;99.90
51982;DHT22;37998;53.416;6.730;2023-04-16T02:03:23;7.70;99.90
51982;DHT22;37998;53.416;6.730;2023-04-16T02:05:49;7.70;99.90
51982;DHT22;37998;53.416;6.730;2023-04-16T02:08:16;7.70;99.90
51982;DHT22;37998;53.416;6.730;2023-04-16T02:10:41;7.80;99.90
51982;DHT22;37998;53.416;6.730;2023-04-16T02:13:07;7.70;99.90
51982;DHT22;37998;53.416;6.730;2023-04-16T02:15:32;7.70;99.90
51982;DHT22;37998;53.416;6.730;2023-04-16T02:17:58;7.70;99.90
51982;DHT22;37998;53.416;6.730;2023-04-16T02:20:24;7.80;99.90
51982;DHT22;37998;53.416;6.730;2023-04-16T02:22:50;7.80;99.90
51982;DHT22;37998;53.416;6.730;2023-04-16T02:25:15;7.80;99.90
51982;DHT22;37998;53.416;6.730;2023-04-16T02:27:41;7.80;99.90
51982;DHT22;37998;53.416;6.730;2023-04-16T02:30:07;7.90;99.90
51982;DHT22;37998;53.416;6.730;2023-04-16T02:32:33;7.90;99.90
51982;DHT22;37998;53.416;6.730;2023-04-16T02:34:58;8.00;99.90
51982;DHT22;37998;53.416;6.730;2023-04-16T02:37:24;8.00;99.90
51982;DHT22;37998;53.416;6.730;2023-04-16T02:39:50;8.00;99.90
51982;DHT22;37998;53.416;6.730;2023-04-16T02:42:16;8.00;99.90
51982;DHT22;37998;53.416;6.730;2023-04-16T02:44:42;8.00;99.90
51982;DHT22;37998;53.416;6.730;2023-04-16T02:47:07;8.00;99.90
51982;DHT22;37998;53.416;6.730;2023-04-16T02:49:33;8.10;99.90
51982;DHT22;37998;53.416;6.730;2023-04-16T02:52:00;8.10;99.90
51982;DHT22;37998;53.416;6.730;2023-04-16T02:54:25;8.30;99.90
51982;DHT22;37998;53.416;6.730;2023-04-16T02:56:51;8.10;99.90
51982;DHT22;37998;53.416;6.730;2023-04-16T02:59:17;8.10;99.90
51982;DHT22;37998;53.416;6.730;2023-04-16T03:01:42;8.00;99.90
51982;DHT22;37998;53.416;6.730;2023-04-16T03:04:08;8.00;99.90
51982;DHT22;37998;53.416;6.730;2023-04-16T03:06:33;8.00;99.90
51982;DHT22;37998;53.416;6.730;2023-04-16T03:08:59;7.90;99.90
51982;DHT22;37998;53.416;6.730;2023-04-16T03:11:25;8.00;99.90
51982;DHT22;37998;53.416;6.730;2023-04-16T03:13:51;7.90;99.90
51982;DHT22;37998;53.416;6.730;2023-04-16T03:16:16;7.80;99.90
51982;DHT22;37998;53.416;6.730;2023-04-16T03:18:42;7.80;99.90
51982;DHT22;37998;53.416;6.730;2023-04-16T03:21:07;7.80;99.90
51982;DHT22;37998;53.416;6.730;2023-04-16T03:23:33;7.80;99.90
51982;DHT22;37998;53.416;6.730;2023-04-16T03:26:00;7.70;99.90
51982;DHT22;37998;53.416;6.730;2023-04-16T03:28:25;7.80;99.90
51982;DHT22;37998;53.416;6.730;2023-04-16T03:30:52;7.70;99.90
51982;DHT22;37998;53.416;6.730;2023-04-16T03:33:18;7.70;99.90
51982;DHT22;37998;53.416;6.730;2023-04-16T03:35:45;7.70;99.90
51982;DHT22;37998;53.416;6.730;2023-04-16T03:38:10;7.60;99.90
51982;DHT22;37998;53.416;6.730;2023-04-16T03:40:37;7.60;99.90
51982;DHT22;37998;53.416;6.730;2023-04-16T03:43:03;7.60;99.90
51982;DHT22;37998;53.416;6.730;2023-04-16T03:45:28;7.60;99.90
51982;DHT22;37998;53.416;6.730;2023-04-16T03:47:54;7.50;99.90
51982;DHT22;37998;53.416;6.730;2023-04-16T03:50:20;7.50;99.90
51982;DHT22;37998;53.416;6.730;2023-04-16T03:52:46;7.60;99.90
51982;DHT22;37998;53.416;6.730;2023-04-16T03:55:14;7.50;99.90
51982;DHT22;37998;53.416;6.730;2023-04-16T03:57:39;7.50;99.90
51982;DHT22;37998;53.416;6.730;2023-04-16T04:00:06;7.50;99.90
51982;DHT22;37998;53.416;6.730;2023-04-16T04:02:32;7.50;99.90
51982;DHT22;37998;53.416;6.730;2023-04-16T04:04:58;7.50;99.90
51982;DHT22;37998;53.416;6.730;2023-04-16T04:07:23;7.50;99.90
51982;DHT22;37998;53.416;6.730;2023-04-16T04:09:49;7.50;99.90
51982;DHT22;37998;53.416;6.730;2023-04-16T04:12:14;7.50;99.90
51982;DHT22;37998;53.416;6.730;2023-04-16T04:14:40;7.50;99.90
51982;DHT22;37998;53.416;6.730;2023-04-16T04:17:07;7.50;99.90
51982;DHT22;37998;53.416;6.730;2023-04-16T04:19:32;7.50;99.90
51982;DHT22;37998;53.416;6.730;2023-04-16T04:21:58;7.40;99.90
51982;DHT22;37998;53.416;6.730;2023-04-16T04:24:24;7.40;99.90
51982;DHT22;37998;53.416;6.730;2023-04-16T04:26:49;7.50;99.90
51982;DHT22;37998;53.416;6.730;2023-04-16T04:29:15;7.40;99.90
51982;DHT22;37998;53.416;6.730;2023-04-16T04:31:41;7.40;99.90
51982;DHT22;37998;53.416;6.730;2023-04-16T04:34:06;7.40;99.90
51982;DHT22;37998;53.416;6.730;2023-04-16T04:36:32;7.60;99.90
51982;DHT22;37998;53.416;6.730;2023-04-16T04:38:58;7.40;99.90
51982;DHT22;37998;53.416;6.730;2023-04-16T04:41:23;7.40;99.90
51982;DHT22;37998;53.416;6.730;2023-04-16T04:43:51;7.40;99.90
51982;DHT22;37998;53.416;6.730;2023-04-16T04:46:16;7.50;99.90
51982;DHT22;37998;53.416;6.730;2023-04-16T04:48:42;7.30;99.90
51982;DHT22;37998;53.416;6.730;2023-04-16T04:51:08;7.30;99.90
51982;DHT22;37998;53.416;6.730;2023-04-16T04:53:33;7.30;99.90
51982;DHT22;37998;53.416;6.730;2023-04-16T04:55:59;7.30;99.90
51982;DHT22;37998;53.416;6.730;2023-04-16T04:58:25;7.30;99.90
51982;DHT22;37998;53.416;6.730;2023-04-16T05:00:50;7.30;99.90
51982;DHT22;37998;53.416;6.730;2023-04-16T05:03:19;7.20;99.90
51982;DHT22;37998;53.416;6.730;2023-04-16T05:05:45;7.20;99.90
51982;DHT22;37998;53.416;6.730;2023-04-16T05:08:11;7.20;99.90
51982;DHT22;37998;53.416;6.730;2023-04-16T05:10:36;7.20;99.90
51982;DHT22;37998;53.416;6.730;2023-04-16T05:13:02;7.20;99.90
51982;DHT22;37998;53.416;6.730;2023-04-16T05:15:28;7.20;99.90
51982;DHT22;37998;53.416;6.730;2023-04-16T05:17:54;7.20;99.90
51982;DHT22;37998;53.416;6.730;2023-04-16T05:20:22;7.30;99.90
51982;DHT22;37998;53.416;6.730;2023-04-16T05:22:49;7.30;99.90
51982;DHT22;37998;53.416;6.730;2023-04-16T05:25:15;7.30;99.90
51982;DHT22;37998;53.416;6.730;2023-04-16T05:27:42;7.30;99.90
51982;DHT22;37998;53.416;6.730;2023-04-16T05:30:08;7.40;99.90
51982;DHT22;37998;53.416;6.730;2023-04-16T05:32:34;7.40;99.90
51982;DHT22;37998;53.416;6.730;2023-04-16T05:35:00;7.50;99.90
51982;DHT22;37998;53.416;6.730;2023-04-16T05:37:26;7.50;99.90
51982;DHT22;37998;53.416;6.730;2023-04-16T05:39:51;7.50;99.90
51982;DHT22;37998;53.416;6.730;2023-04-16T05:42:17;7.50;99.90
51982;DHT22;37998;53.416;6.730;2023-04-16T05:44:42;7.50;99.90
51982;DHT22;37998;53.416;6.730;2023-04-16T05:47:08;7.50;99.90
51982;DHT22;37998;53.416;6.730;2023-04-16T05:49:34;7.60;99.90
51982;DHT22;37998;53.416;6.730;2023-04-16T05:52:05;7.60;99.90
51982;DHT22;37998;53.416;6.730;2023-04-16T05:54:31;7.60;99.90
51982;DHT22;37998;53.416;6.730;2023-04-16T05:56:57;7.70;99.90
51982;DHT22;37998;53.416;6.730;2023-04-16T05:59:22;7.80;99.90
51982;DHT22;37998;53.416;6.730;2023-04-16T06:01:48;7.80;99.90
51982;DHT22;37998;53.416;6.730;2023-04-16T06:04:14;7.90;99.90
51982;DHT22;37998;53.416;6.730;2023-04-16T06:06:39;8.00;99.90
51982;DHT22;37998;53.416;6.730;2023-04-16T06:09:05;8.10;99.90
51982;DHT22;37998;53.416;6.730;2023-04-16T06:11:31;8.10;99.90
51982;DHT22;37998;53.416;6.730;2023-04-16T06:13:56;8.20;99.90
51982;DHT22;37998;53.416;6.730;2023-04-16T06:16:22;8.20;99.90
51982;DHT22;37998;53.416;6.730;2023-04-16T06:18:48;8.30;99.90
51982;DHT22;37998;53.416;6.730;2023-04-16T06:21:13;8.40;99.90
51982;DHT22;37998;53.416;6.730;2023-04-16T06:23:40;8.40;99.90
51982;DHT22;37998;53.416;6.730;2023-04-16T06:26:05;8.50;99.90
51982;DHT22;37998;53.416;6.730;2023-04-16T06:28:31;8.50;99.90
51982;DHT22;37998;53.416;6.730;2023-04-16T06:30:56;8.60;99.90
51982;DHT22;37998;53.416;6.730;2023-04-16T06:33:22;8.60;99.90
51982;DHT22;37998;53.416;6.730;2023-04-16T06:35:48;8.70;99.90
51982;DHT22;37998;53.416;6.730;2023-04-16T06:38:14;8.70;99.90
51982;DHT22;37998;53.416;6.730;2023-04-16T06:40:40;8.70;99.90
51982;DHT22;37998;53.416;6.730;2023-04-16T06:43:05;8.90;99.90
51982;DHT22;37998;53.416;6.730;2023-04-16T06:45:31;9.00;99.90
51982;DHT22;37998;53.416;6.730;2023-04-16T06:47:57;8.90;99.90
51982;DHT22;37998;53.416;6.730;2023-04-16T06:50:27;8.90;99.90
51982;DHT22;37998;53.416;6.730;2023-04-16T06:52:54;8.90;99.90
51982;DHT22;37998;53.416;6.730;2023-04-16T06:55:20;8.90;99.90
51982;DHT22;37998;53.416;6.730;2023-04-16T06:57:45;9.00;99.90
51982;DHT22;37998;53.416;6.730;2023-04-16T07:00:11;9.00;99.90
51982;DHT22;37998;53.416;6.730;2023-04-16T07:02:37;9.00;99.90
51982;DHT22;37998;53.416;6.730;2023-04-16T07:05:03;9.00;99.90
51982;DHT22;37998;53.416;6.730;2023-04-16T07:07:29;9.00;99.90
51982;DHT22;37998;53.416;6.730;2023-04-16T07:09:55;9.00;99.90
51982;DHT22;37998;53.416;6.730;2023-04-16T07:12:21;9.00;99.90
51982;DHT22;37998;53.416;6.730;2023-04-16T07:14:46;8.90;99.90
51982;DHT22;37998;53.416;6.730;2023-04-16T07:17:12;8.90;99.90
51982;DHT22;37998;53.416;6.730;2023-04-16T07:19:38;8.90;99.90
51982;DHT22;37998;53.416;6.730;2023-04-16T07:22:03;8.90;99.90
51982;DHT22;37998;53.416;6.730;2023-04-16T07:24:29;8.90;99.90
51982;DHT22;37998;53.416;6.730;2023-04-16T07:26:57;8.90;99.90
51982;DHT22;37998;53.416;6.730;2023-04-16T07:29:23;8.90;99.90
51982;DHT22;37998;53.416;6.730;2023-04-16T07:31:49;8.90;99.90
51982;DHT22;37998;53.416;6.730;2023-04-16T07:34:14;8.90;99.90
51982;DHT22;37998;53.416;6.730;2023-04-16T07:36:40;9.00;99.90
51982;DHT22;37998;53.416;6.730;2023-04-16T07:39:06;9.00;99.90
51982;DHT22;37998;53.416;6.730;2023-04-16T07:41:31;9.00;99.90
51982;DHT22;37998;53.416;6.730;2023-04-16T07:43:57;9.00;99.90
51982;DHT22;37998;53.416;6.730;2023-04-16T07:46:23;9.00;99.90
51982;DHT22;37998;53.416;6.730;2023-04-16T07:48:49;9.10;99.90
51982;DHT22;37998;53.416;6.730;2023-04-16T07:51:14;9.10;99.90
51982;DHT22;37998;53.416;6.730;2023-04-16T07:53:40;9.10;99.90
51982;DHT22;37998;53.416;6.730;2023-04-16T07:56:08;9.20;99.90
51982;DHT22;37998;53.416;6.730;2023-04-16T07:58:33;9.30;99.90
51982;DHT22;37998;53.416;6.730;2023-04-16T08:00:59;9.30;99.90
51982;DHT22;37998;53.416;6.730;2023-04-16T08:03:25;9.30;99.90
51982;DHT22;37998;53.416;6.730;2023-04-16T08:05:51;9.40;99.90
51982;DHT22;37998;53.416;6.730;2023-04-16T08:08:17;9.40;99.90
51982;DHT22;37998;53.416;6.730;2023-04-16T08:10:42;9.50;99.90
51982;DHT22;37998;53.416;6.730;2023-04-16T08:13:08;9.50;99.90
51982;DHT22;37998;53.416;6.730;2023-04-16T08:15:33;9.60;99.90
51982;DHT22;37998;53.416;6.730;2023-04-16T08:17:59;9.60;99.90
51982;DHT22;37998;53.416;6.730;2023-04-16T08:20:25;9.70;99.90
51982;DHT22;37998;53.416;6.730;2023-04-16T08:22:52;9.70;99.90
51982;DHT22;37998;53.416;6.730;2023-04-16T08:25:18;9.80;99.90
51982;DHT22;37998;53.416;6.730;2023-04-16T08:27:44;9.90;99.90
51982;DHT22;37998;53.416;6.730;2023-04-16T08:30:10;9.90;99.90
51982;DHT22;37998;53.416;6.730;2023-04-16T08:32:36;10.00;99.90
51982;DHT22;37998;53.416;6.730;2023-04-16T08:35:02;10.00;99.90
51982;DHT22;37998;53.416;6.730;2023-04-16T08:37:28;10.10;99.90
51982;DHT22;37998;53.416;6.730;2023-04-16T08:39:53;10.10;99.90
51982;DHT22;37998;53.416;6.730;2023-04-16T08:42:31;10.20;99.90
51982;DHT22;37998;53.416;6.730;2023-04-16T08:45:07;10.20;99.90
51982;DHT22;37998;53.416;6.730;2023-04-16T08:47:34;10.30;99.90
51982;DHT22;37998;53.416;6.730;2023-04-16T08:50:04;10.40;99.90
51982;DHT22;37998;53.416;6.730;2023-04-16T08:52:30;10.40;99.90
51982;DHT22;37998;53.416;6.730;2023-04-16T08:55:12;10.50;99.90
51982;DHT22;37998;53.416;6.730;2023-04-16T08:57:50;10.50;99.90
51982;DHT22;37998;53.416;6.730;2023-04-16T09:00:18;10.60;99.90
51982;DHT22;37998;53.416;6.730;2023-04-16T09:02:44;10.60;99.90
51982;DHT22;37998;53.416;6.730;2023-04-16T09:05:14;10.70;99.90
51982;DHT22;37998;53.416;6.730;2023-04-16T09:07:45;10.70;99.90
51982;DHT22;37998;53.416;6.730;2023-04-16T09:10:12;10.80;99.90
51982;DHT22;37998;53.416;6.730;2023-04-16T09:12:40;10.90;99.90
51982;DHT22;37998;53.416;6.730;2023-04-16T09:15:09;10.90;99.90
51982;DHT22;37998;53.416;6.730;2023-04-16T09:17:35;10.90;99.90
51982;DHT22;37998;53.416;6.730;2023-04-16T09:20:03;11.00;99.90
51982;DHT22;37998;53.416;6.730;2023-04-16T09:22:30;11.00;99.90
51982;DHT22;37998;53.416;6.730;2023-04-16T09:24:56;11.00;99.90
51982;DHT22;37998;53.416;6.730;2023-04-16T09:27:22;11.00;99.90
51982;DHT22;37998;53.416;6.730;2023-04-16T09:29:49;11.20;99.90
51982;DHT22;37998;53.416;6.730;2023-04-16T09:32:15;11.20;99.90
51982;DHT22;37998;53.416;6.730;2023-04-16T09:37:19;11.30;99.90
51982;DHT22;37998;53.416;6.730;2023-04-16T09:39:55;11.30;99.90
51982;DHT22;37998;53.416;6.730;2023-04-16T09:42:23;11.30;99.90
51982;DHT22;37998;53.416;6.730;2023-04-16T09:44:49;11.40;99.90
51982;DHT22;37998;53.416;6.730;2023-04-16T09:47:15;11.50;99.90
51982;DHT22;37998;53.416;6.730;2023-04-16T09:49:41;11.50;99.90
51982;DHT22;37998;53.416;6.730;2023-04-16T09:52:19;11.50;99.90
51982;DHT22;37998;53.416;6.730;2023-04-16T09:54:49;11.50;99.90
51982;DHT22;37998;53.416;6.730;2023-04-16T09:57:22;11.60;99.90
51982;DHT22;37998;53.416;6.730;2023-04-16T10:00:02;11.60;99.90
51982;DHT22;37998;53.416;6.730;2023-04-16T10:02:29;11.60;99.90
51982;DHT22;37998;53.416;6.730;2023-04-16T10:04:56;11.60;99.90
51982;DHT22;37998;53.416;6.730;2023-04-16T10:07:22;11.60;99.90
51982;DHT22;37998;53.416;6.730;2023-04-16T10:09:52;11.80;99.90
51982;DHT22;37998;53.416;6.730;2023-04-16T10:12:19;11.70;99.90
51982;DHT22;37998;53.416;6.730;2023-04-16T10:14:48;11.60;99.90
51982;DHT22;37998;53.416;6.730;2023-04-16T10:17:15;11.70;99.90
51982;DHT22;37998;53.416;6.730;2023-04-16T10:19:41;11.60;99.90
51982;DHT22;37998;53.416;6.730;2023-04-16T10:22:07;11.60;99.90
51982;DHT22;37998;53.416;6.730;2023-04-16T10:24:33;11.70;99.90
51982;DHT22;37998;53.416;6.730;2023-04-16T10:27:00;11.70;99.90
51982;DHT22;37998;53.416;6.730;2023-04-16T10:29:28;11.70;99.90
51982;DHT22;37998;53.416;6.730;2023-04-16T10:31:55;11.80;99.90
51982;DHT22;37998;53.416;6.730;2023-04-16T10:34:22;11.80;99.90
51982;DHT22;37998;53.416;6.730;2023-04-16T10:36:50;11.80;99.90
51982;DHT22;37998;53.416;6.730;2023-04-16T10:39:22;11.90;99.90
51982;DHT22;37998;53.416;6.730;2023-04-16T10:41:49;11.90;99.90
51982;DHT22;37998;53.416;6.730;2023-04-16T10:44:17;11.90;99.90
51982;DHT22;37998;53.416;6.730;2023-04-16T10:46:45;11.90;99.90
51982;DHT22;37998;53.416;6.730;2023-04-16T10:49:19;12.00;99.90
51982;DHT22;37998;53.416;6.730;2023-04-16T10:51:58;11.90;99.90
51982;DHT22;37998;53.416;6.730;2023-04-16T10:54:26;12.00;99.90
51982;DHT22;37998;53.416;6.730;2023-04-16T10:56:53;12.00;99.90
51982;DHT22;37998;53.416;6.730;2023-04-16T10:59:21;12.00;99.90
51982;DHT22;37998;53.416;6.730;2023-04-16T11:01:54;12.10;99.90
51982;DHT22;37998;53.416;6.730;2023-04-16T11:10:01;12.30;99.90
51982;DHT22;37998;53.416;6.730;2023-04-16T11:12:34;12.40;99.90
51982;DHT22;37998;53.416;6.730;2023-04-16T11:15:08;12.40;99.90
51982;DHT22;37998;53.416;6.730;2023-04-16T11:17:50;12.40;99.90
51982;DHT22;37998;53.416;6.730;2023-04-16T11:22:47;12.40;99.90
51982;DHT22;37998;53.416;6.730;2023-04-16T11:27:38;12.50;99.90
51982;DHT22;37998;53.416;6.730;2023-04-16T11:30:07;12.60;99.90
51982;DHT22;37998;53.416;6.730;2023-04-16T11:32:37;12.70;99.90
51982;DHT22;37998;53.416;6.730;2023-04-16T11:35:14;12.70;99.90
51982;DHT22;37998;53.416;6.730;2023-04-16T11:37:41;12.90;99.90
51982;DHT22;37998;53.416;6.730;2023-04-16T11:40:08;12.80;99.90
51982;DHT22;37998;53.416;6.730;2023-04-16T11:42:38;12.80;99.90
51982;DHT22;37998;53.416;6.730;2023-04-16T11:45:10;12.80;99.90
51982;DHT22;37998;53.416;6.730;2023-04-16T11:47:50;12.80;99.90
51982;DHT22;37998;53.416;6.730;2023-04-16T11:50:28;13.00;99.90
51982;DHT22;37998;53.416;6.730;2023-04-16T11:53:02;13.00;99.90
51982;DHT22;37998;53.416;6.730;2023-04-16T11:55:29;13.10;99.90
51982;DHT22;37998;53.416;6.730;2023-04-16T11:57:55;13.10;99.90
51982;DHT22;37998;53.416;6.730;2023-04-16T12:00:21;13.20;99.90
51982;DHT22;37998;53.416;6.730;2023-04-16T12:02:52;13.10;99.90
51982;DHT22;37998;53.416;6.730;2023-04-16T12:05:25;13.00;99.90
51982;DHT22;37998;53.416;6.730;2023-04-16T12:07:55;12.90;99.90
51982;DHT22;37998;53.416;6.730;2023-04-16T12:10:21;12.70;99.90
51982;DHT22;37998;53.416;6.730;2023-04-16T12:12:47;12.60;99.90
51982;DHT22;37998;53.416;6.730;2023-04-16T12:15:13;12.60;99.90
51982;DHT22;37998;53.416;6.730;2023-04-16T12:17:39;12.50;99.90
51982;DHT22;37998;53.416;6.730;2023-04-16T12:20:09;12.50;99.90
51982;DHT22;37998;53.416;6.730;2023-04-16T12:22:40;12.50;99.90
51982;DHT22;37998;53.416;6.730;2023-04-16T12:25:13;12.40;99.90
51982;DHT22;37998;53.416;6.730;2023-04-16T12:27:50;12.30;99.90
51982;DHT22;37998;53.416;6.730;2023-04-16T12:30:19;12.30;99.90
51982;DHT22;37998;53.416;6.730;2023-04-16T12:32:48;12.20;99.90
51982;DHT22;37998;53.416;6.730;2023-04-16T12:35:29;12.20;99.90
51982;DHT22;37998;53.416;6.730;2023-04-16T12:37:55;12.10;99.90
51982;DHT22;37998;53.416;6.730;2023-04-16T12:40:21;12.00;99.90
51982;DHT22;37998;53.416;6.730;2023-04-16T12:42:47;12.00;99.90
51982;DHT22;37998;53.416;6.730;2023-04-16T12:45:13;11.90;99.90
51982;DHT22;37998;53.416;6.730;2023-04-16T12:47:39;11.90;99.90
51982;DHT22;37998;53.416;6.730;2023-04-16T12:50:05;11.80;99.90
51982;DHT22;37998;53.416;6.730;2023-04-16T12:52:31;11.80;99.90
51982;DHT22;37998;53.416;6.730;2023-04-16T12:54:58;11.80;99.90
51982;DHT22;37998;53.416;6.730;2023-04-16T12:57:25;11.80;99.90
51982;DHT22;37998;53.416;6.730;2023-04-16T12:59:57;11.70;99.90
51982;DHT22;37998;53.416;6.730;2023-04-16T13:02:23;11.70;99.90
51982;DHT22;37998;53.416;6.730;2023-04-16T13:04:50;11.60;99.90
51982;DHT22;37998;53.416;6.730;2023-04-16T13:07:17;11.60;99.90
51982;DHT22;37998;53.416;6.730;2023-04-16T13:09:43;11.50;99.90
51982;DHT22;37998;53.416;6.730;2023-04-16T13:12:09;11.50;99.90
51982;DHT22;37998;53.416;6.730;2023-04-16T13:14:36;11.50;99.90
51982;DHT22;37998;53.416;6.730;2023-04-16T13:17:02;11.50;99.90
51982;DHT22;37998;53.416;6.730;2023-04-16T13:19:29;11.50;99.90
51982;DHT22;37998;53.416;6.730;2023-04-16T13:21:55;11.60;99.90
51982;DHT22;37998;53.416;6.730;2023-04-16T13:24:21;11.60;99.90
51982;DHT22;37998;53.416;6.730;2023-04-16T13:26:49;11.60;99.90
51982;DHT22;37998;53.416;6.730;2023-04-16T13:29:15;11.60;99.90
51982;DHT22;37998;53.416;6.730;2023-04-16T13:31:41;11.60;99.90
51982;DHT22;37998;53.416;6.730;2023-04-16T13:34:06;11.60;99.90
51982;DHT22;37998;53.416;6.730;2023-04-16T13:36:32;11.70;99.90
51982;DHT22;37998;53.416;6.730;2023-04-16T13:38:59;11.60;99.90
51982;DHT22;37998;53.416;6.730;2023-04-16T13:41:25;11.60;99.90
51982;DHT22;37998;53.416;6.730;2023-04-16T13:43:51;11.70;99.90
51982;DHT22;37998;53.416;6.730;2023-04-16T13:46:17;11.70;99.90
51982;DHT22;37998;53.416;6.730;2023-04-16T13:48:44;11.70;99.90
51982;DHT22;37998;53.416;6.730;2023-04-16T13:51:10;11.60;99.90
51982;DHT22;37998;53.416;6.730;2023-04-16T13:53:36;11.80;99.90
51982;DHT22;37998;53.416;6.730;2023-04-16T13:56:02;11.80;99.90
51982;DHT22;37998;53.416;6.730;2023-04-16T13:58:28;11.90;99.90
51982;DHT22;37998;53.416;6.730;2023-04-16T14:00:54;11.90;99.90
51982;DHT22;37998;53.416;6.730;2023-04-16T14:03:21;12.00;99.90
51982;DHT22;37998;53.416;6.730;2023-04-16T14:05:46;12.00;99.90
51982;DHT22;37998;53.416;6.730;2023-04-16T14:08:12;12.10;99.90
51982;DHT22;37998;53.416;6.730;2023-04-16T14:10:39;12.20;99.90
51982;DHT22;37998;53.416;6.730;2023-04-16T14:13:05;12.30;99.90
51982;DHT22;37998;53.416;6.730;2023-04-16T14:15:31;12.40;99.90
51982;DHT22;37998;53.416;6.730;2023-04-16T14:17:57;12.40;99.90
51982;DHT22;37998;53.416;6.730;2023-04-16T14:20:23;12.40;99.90
51982;DHT22;37998;53.416;6.730;2023-04-16T14:22:49;12.50;99.90
51982;DHT22;37998;53.416;6.730;2023-04-16T14:25:15;12.50;99.90
51982;DHT22;37998;53.416;6.730;2023-04-16T14:27:41;12.50;99.90
51982;DHT22;37998;53.416;6.730;2023-04-16T14:30:07;12.50;99.90
51982;DHT22;37998;53.416;6.730;2023-04-16T14:32:33;12.50;99.90
51982;DHT22;37998;53.416;6.730;2023-04-16T14:34:59;12.40;99.90
51982;DHT22;37998;53.416;6.730;2023-04-16T14:37:25;12.30;99.90
51982;DHT22;37998;53.416;6.730;2023-04-16T14:39:51;12.30;99.90
51982;DHT22;37998;53.416;6.730;2023-04-16T14:42:18;12.20;99.90
51982;DHT22;37998;53.416;6.730;2023-04-16T14:44:44;12.20;99.90
51982;DHT22;37998;53.416;6.730;2023-04-16T14:47:10;12.10;99.90
51982;DHT22;37998;53.416;6.730;2023-04-16T14:49:36;12.10;99.90
51982;DHT22;37998;53.416;6.730;2023-04-16T14:52:02;12.10;99.90
51982;DHT22;37998;53.416;6.730;2023-04-16T14:54:31;12.20;99.90
51982;DHT22;37998;53.416;6.730;2023-04-16T14:56:58;12.20;99.90
51982;DHT22;37998;53.416;6.730;2023-04-16T14:59:23;12.10;99.90
51982;DHT22;37998;53.416;6.730;2023-04-16T15:01:49;12.10;99.90
51982;DHT22;37998;53.416;6.730;2023-04-16T15:04:15;11.90;99.90
51982;DHT22;37998;53.416;6.730;2023-04-16T15:06:41;11.80;99.90
51982;DHT22;37998;53.416;6.730;2023-04-16T15:09:07;11.60;99.90
51982;DHT22;37998;53.416;6.730;2023-04-16T15:11:34;11.80;99.90
51982;DHT22;37998;53.416;6.730;2023-04-16T15:13:59;11.60;99.90
51982;DHT22;37998;53.416;6.730;2023-04-16T15:16:25;11.60;99.90
51982;DHT22;37998;53.416;6.730;2023-04-16T15:18:51;11.50;99.90
51982;DHT22;37998;53.416;6.730;2023-04-16T15:21:17;11.40;99.90
51982;DHT22;37998;53.416;6.730;2023-04-16T15:23:43;11.40;99.90
51982;DHT22;37998;53.416;6.730;2023-04-16T15:26:09;11.30;99.90
51982;DHT22;37998;53.416;6.730;2023-04-16T15:28:35;11.30;99.90
51982;DHT22;37998;53.416;6.730;2023-04-16T15:31:01;11.30;99.90
51982;DHT22;37998;53.416;6.730;2023-04-16T15:33:27;11.30;99.90
51982;DHT22;37998;53.416;6.730;2023-04-16T15:35:53;11.30;99.90
51982;DHT22;37998;53.416;6.730;2023-04-16T15:38:19;11.30;99.90
51982;DHT22;37998;53.416;6.730;2023-04-16T15:40:47;11.30;99.90
51982;DHT22;37998;53.416;6.730;2023-04-16T15:43:14;11.20;99.90
51982;DHT22;37998;53.416;6.730;2023-04-16T15:45:40;11.30;99.90
51982;DHT22;37998;53.416;6.730;2023-04-16T15:48:06;11.10;99.90
51982;DHT22;37998;53.416;6.730;2023-04-16T15:50:32;11.00;99.90